Dati meteo in tempo reale

Italia

Ora Localita Cielo Situazione Vento Temperatura Umidita Pressione
15:20MilanoSerenoSW a 7 Km/h8°C71%1027 hPa
15:20BergamoSerenoW a 9 Km/h9°C66%1027 hPa
14:55BresciaSerenobruma W a 9 Km/h7°C76%1027 hPa
14:50BolzanoSerenoAssente9°C34%1026 hPa
14:55Passo ResiaSerenoSW a 9 Km/h3°C48%1022 hPa
14:55DobbiacoSerenoAssente1°C51%1024 hPa
14:55PaganellaSerenovariabile a 2 Km/h-2°C59%1023 hPa
14:55Passo RolleSerenoSSE a 6 Km/h-1°C51%1025 hPa
14:55TarvisioSerenoW a 15 Km/h5°C66%1023 hPa
15:20Cuneovariabile a 4 Km/h6°C76%1026 hPa
15:20TorinoSerenobruma variabile a 4 Km/h7°C71%1027 hPa
14:55UdineSerenoS a 6 Km/h9°C54%1027 hPa
15:20VeneziaSerenoSSW a 17 Km/h6°C81%1028 hPa
14:55TriesteSerenoAssente11°C62%1028 hPa
14:55TrevisoSerenoSSW a 7 Km/h9°C62%1027 hPa
15:20VeronaNDnebbia variabile a 4 Km/h3°C93%1028 hPa

Austria

Ora Localita Cielo Situazione Vento Temperatura Umidita Pressione
15:20InnsbruckSerenovariabile a 4 Km/h7°C42%1023 hPa
15:20SalisburgoSerenovariabile a 4 Km/h7°C61%1023 hPa
15:20KlagenfurtSerenoE a 6 Km/h-2°C86%1024 hPa
15:20GrazSerenoS a 6 Km/h4°C65%1024 hPa

Slovenia

Ora Localita Cielo Situazione Vento Temperatura Umidita Pressione
15:30LubianaSerenoE a 6 Km/h2°C81%1025 hPa
15:30MariborSerenoS a 17 Km/h6°C61%1024 hPa

Svizzera

Ora Localita Cielo Situazione Vento Temperatura Umidita Pressione
15:20St. GallenSerenoNNE a 6 Km/h3°C100%1026 hPa
15:20GenčveNuvolosoSW a 17 Km/h6°C71%1027 hPa
15:20SionSerenovariabile a 4 Km/h5°C53%1025 hPa
15:20La Chaux-de-FondsMolto NuvolosoW a 20 Km/h-2°C100%1025 hPa
15:20LuganoSerenoSSW a 9 Km/h9°C58%1026 hPa
15:20St. MoritzSerenoSSW a 19 Km/h1°C44%1022 hPa
15:20ZürichNuvolosoWSW a 13 Km/h4°C70%1027 hPa
15:20BernaNuvolosovariabile a 4 Km/h2°C81%1026 hPa
15:20GrenchenNuvolosoSW a 9 Km/h4°C81%1026 hPa

Germania

Ora Localita Cielo Situazione Vento Temperatura Umidita Pressione
15:20MünchenSerenoW a 11 Km/h5°C66%1023 hPa
15:20Baden BadenNuvolosoSW a 20 Km/h5°C76%1026 hPa
15:20StuttgartNuvolosoSW a 6 Km/h5°C70%1024 hPa
15:20FriedrichshafenSerenoSW a 19 Km/h5°C70%1026 hPa
15:20Lahr (Cochem-Zell)NuvolosoS a 22 Km/h4°C81%1027 hPa
15:20AltenstadtW a 19 Km/h5°C53%1023 hPa
15:20LechfeldSW a 19 Km/h7°C53%1023 hPa
15:20AugsburgSerenoWSW a 11 Km/h6°C66%1023 hPa
15:20LaupheimW a 22 Km/h5°C66%1023 hPa

Francia

Ora Localita Cielo Situazione Vento Temperatura Umidita Pressione
15:30StrasbourgMolto NuvolosoS a 15 Km/h4°C81%1026 hPa
15:30NicePoco NuvolosoSSE a 11 Km/h13°C67%1027 hPa